createdAt,value
2023-03-11T00:01:54.569Z,42.31
2023-03-11T00:06:58.258Z,40.83
2023-03-11T00:12:03.109Z,38.56
2023-03-11T00:17:09.143Z,37.67
2023-03-11T00:22:12.671Z,36.45
2023-03-11T00:27:17.397Z,37.56
2023-03-11T00:32:20.829Z,36.87
2023-03-11T00:37:24.234Z,34.42
2023-03-11T00:42:29.033Z,33.90
2023-03-11T00:47:32.562Z,36.30
2023-03-11T00:52:38.973Z,35.69
2023-03-11T00:57:43.958Z,34.50
2023-03-11T01:02:48.047Z,31.30
2023-03-11T01:07:51.912Z,31.90
2023-03-11T01:12:57.777Z,33.17
2023-03-11T01:18:01.589Z,32.45
2023-03-11T01:23:09.674Z,33.02
2023-03-11T01:28:19.331Z,32.03
2023-03-11T01:33:22.773Z,33.01
2023-03-11T01:38:26.262Z,31.04
2023-03-11T01:43:42.588Z,31.00
2023-03-11T01:48:52.638Z,31.54
2023-03-11T01:53:57.663Z,31.89
2023-03-11T01:59:09.985Z,47.50
2023-03-11T02:04:14.219Z,30.19
2023-03-11T02:09:17.689Z,30.06
2023-03-11T02:14:22.690Z,29.77
2023-03-11T02:19:37.126Z,30.01
2023-03-11T02:24:46.087Z,29.42
2023-03-11T02:29:54.110Z,27.58
2023-03-11T02:35:00.184Z,29.25
2023-03-11T02:40:30.025Z,30.69
2023-03-11T02:45:35.658Z,29.66
2023-03-11T02:50:39.726Z,29.75
2023-03-11T02:55:48.264Z,26.62
2023-03-11T03:00:53.218Z,21.83
2023-03-11T03:05:56.785Z,21.30
2023-03-11T03:11:01.233Z,22.19
2023-03-11T03:16:06.784Z,21.44
2023-03-11T03:21:10.269Z,22.20
2023-03-11T03:26:15.119Z,21.76
2023-03-11T03:31:24.332Z,20.50
2023-03-11T03:36:27.955Z,19.91
2023-03-11T03:41:36.816Z,20.04
2023-03-11T03:46:42.968Z,20.01
2023-03-11T03:51:46.826Z,22.00
2023-03-11T03:56:59.704Z,40.91
2023-03-11T04:02:04.845Z,33.00
2023-03-11T04:07:08.656Z,22.50
2023-03-11T04:12:14.521Z,22.70
2023-03-11T04:17:20.099Z,26.04
2023-03-11T04:22:27.250Z,27.76
2023-03-11T04:27:30.842Z,27.31
2023-03-11T04:32:39.560Z,26.80
2023-03-11T04:37:43.047Z,27.88
2023-03-11T04:42:48.887Z,28.54
2023-03-11T04:47:54.105Z,28.44
2023-03-11T04:52:57.615Z,28.41
2023-03-11T04:58:02.750Z,30.97
2023-03-11T05:03:08.182Z,28.19
2023-03-11T05:08:12.264Z,30.82
2023-03-11T05:13:16.372Z,30.91
2023-03-11T05:18:21.553Z,31.53
2023-03-11T05:23:28.808Z,30.13
2023-03-11T05:28:32.294Z,29.93
2023-03-11T05:33:40.182Z,31.76
2023-03-11T05:38:47.331Z,32.61
2023-03-11T05:43:54.338Z,30.65
2023-03-11T05:49:00.153Z,30.42
2023-03-11T05:54:03.876Z,30.38
2023-03-11T05:59:16.615Z,29.60
2023-03-11T06:04:24.103Z,29.24
2023-03-11T06:09:27.912Z,32.05
2023-03-11T06:14:38.675Z,29.57
2023-03-11T06:19:44.098Z,28.08
2023-03-11T06:24:50.168Z,27.64
2023-03-11T06:29:54.748Z,27.16
2023-03-11T06:35:01.807Z,21.49
2023-03-11T06:40:07.578Z,21.40
2023-03-11T06:45:14.730Z,20.05
2023-03-11T06:50:23.705Z,32.40
2023-03-11T06:55:31.891Z,21.72
2023-03-11T07:00:36.234Z,19.24
2023-03-11T07:05:41.607Z,17.96
2023-03-11T07:10:48.399Z,18.13
2023-03-11T07:16:00.676Z,20.23
2023-03-11T07:21:06.151Z,20.45
2023-03-11T07:26:09.793Z,20.31
2023-03-11T07:31:14.836Z,19.42
2023-03-11T07:36:21.245Z,22.11
2023-03-11T07:41:27.560Z,21.87
2023-03-11T07:46:31.716Z,20.56
2023-03-11T07:51:40.976Z,22.56
2023-03-11T07:56:44.331Z,25.31
2023-03-11T08:01:48.169Z,25.86
2023-03-11T08:06:57.744Z,24.97
2023-03-11T08:12:06.266Z,24.66
2023-03-11T08:17:12.659Z,23.09
2023-03-11T08:22:17.450Z,22.84
2023-03-11T08:27:21.022Z,20.85
2023-03-11T08:32:24.459Z,22.94
2023-03-11T08:37:29.245Z,22.06
2023-03-11T08:42:32.710Z,23.31
2023-03-11T08:47:40.465Z,23.46
2023-03-11T08:52:45.293Z,31.87
2023-03-11T08:57:49.841Z,23.15
2023-03-11T09:02:53.746Z,25.73
2023-03-11T09:08:01.040Z,24.64
2023-03-11T09:13:04.450Z,24.63
2023-03-11T09:18:09.172Z,25.15
2023-03-11T09:23:15.285Z,25.82
2023-03-11T09:28:21.000Z,25.73
2023-03-11T09:33:24.398Z,27.34
2023-03-11T09:38:29.217Z,26.92
2023-03-11T09:43:44.668Z,27.76
2023-03-11T09:48:53.770Z,28.17
2023-03-11T09:54:04.369Z,29.58
2023-03-11T09:59:10.494Z,33.27
2023-03-11T10:04:18.403Z,35.32
2023-03-11T10:09:33.756Z,34.83
2023-03-11T10:14:56.533Z,33.16
2023-03-11T10:20:08.318Z,34.43
2023-03-11T10:25:17.745Z,35.92
2023-03-11T10:30:27.025Z,34.23
2023-03-11T10:35:39.209Z,33.87
2023-03-11T10:40:45.148Z,30.90
2023-03-11T10:45:51.003Z,30.30
2023-03-11T10:51:03.056Z,29.28
2023-03-11T10:56:25.018Z,24.09
2023-03-11T11:01:29.897Z,22.60
2023-03-11T11:06:35.664Z,20.67
2023-03-11T11:11:40.638Z,30.83
2023-03-11T11:16:44.123Z,22.72
2023-03-11T11:21:50.804Z,26.24
2023-03-11T11:27:14.271Z,18.78
2023-03-11T11:32:21.235Z,19.75
2023-03-11T11:37:32.053Z,17.87
2023-03-11T11:42:36.082Z,21.31
2023-03-11T11:47:45.258Z,19.65
2023-03-11T11:52:53.368Z,24.20
2023-03-11T11:57:57.733Z,19.60
2023-03-11T12:03:13.547Z,28.69
2023-03-11T12:08:20.788Z,19.82
2023-03-11T12:13:42.815Z,28.77
2023-03-11T12:18:53.169Z,21.66
2023-03-11T12:24:04.808Z,23.01
2023-03-11T12:29:16.128Z,23.65
2023-03-11T12:34:25.922Z,23.49
2023-03-11T12:39:31.352Z,23.71
2023-03-11T12:44:37.621Z,20.93
2023-03-11T12:49:46.522Z,19.80
2023-03-11T12:54:50.855Z,17.63
2023-03-11T13:00:17.532Z,21.17
2023-03-11T13:05:28.677Z,19.82
2023-03-11T13:10:37.625Z,19.65
2023-03-11T13:15:46.553Z,22.10
2023-03-11T13:20:57.159Z,27.10
2023-03-11T13:26:12.939Z,22.48
2023-03-11T13:31:28.036Z,23.06
2023-03-11T13:36:47.121Z,23.22
2023-03-11T13:41:55.714Z,26.80
2023-03-11T13:47:02.493Z,22.65
2023-03-11T13:52:10.113Z,23.24
2023-03-11T13:57:23.741Z,22.19
2023-03-11T14:02:28.457Z,22.32
2023-03-11T14:07:38.705Z,20.20
2023-03-11T14:12:42.241Z,20.80
2023-03-11T14:17:48.847Z,21.04
2023-03-11T14:22:55.361Z,18.67
2023-03-11T14:28:01.890Z,20.25
2023-03-11T14:33:06.325Z,24.12
2023-03-11T14:38:23.697Z,23.31
2023-03-11T14:43:29.955Z,20.22
2023-03-11T14:48:38.693Z,19.57
2023-03-11T14:53:47.465Z,24.42
2023-03-11T14:59:07.834Z,21.72
2023-03-11T15:04:26.910Z,49.59
2023-03-11T15:09:33.157Z,19.57
2023-03-11T15:14:50.673Z,19.32
2023-03-11T15:19:56.585Z,19.80
2023-03-11T15:25:04.233Z,19.13
2023-03-11T15:30:20.455Z,14.18
2023-03-11T15:35:25.134Z,11.90
2023-03-11T15:40:44.541Z,11.90
2023-03-11T15:45:49.256Z,9.06
2023-03-11T15:50:58.585Z,10.98
2023-03-11T15:56:15.102Z,10.62
2023-03-11T16:01:23.701Z,8.32
2023-03-11T16:06:27.137Z,11.26
2023-03-11T16:11:33.187Z,16.39
2023-03-11T16:16:37.472Z,16.11
2023-03-11T16:21:46.971Z,16.60
2023-03-11T16:26:54.154Z,15.78
2023-03-11T16:31:57.593Z,18.69
2023-03-11T16:37:01.018Z,15.29
2023-03-11T16:42:06.503Z,15.95
2023-03-11T16:47:09.995Z,17.38
2023-03-11T16:52:13.668Z,17.32
2023-03-11T16:57:18.782Z,21.63
2023-03-11T17:02:24.931Z,18.02
2023-03-11T17:07:28.687Z,16.44
2023-03-11T17:12:34.468Z,16.73
2023-03-11T17:17:37.883Z,23.90
2023-03-11T17:22:41.300Z,18.22
2023-03-11T17:27:46.060Z,15.21
2023-03-11T17:32:49.525Z,16.13
2023-03-11T17:37:53.006Z,14.66
2023-03-11T17:42:59.787Z,16.07
2023-03-11T17:48:05.897Z,25.53
2023-03-11T17:53:11.716Z,18.81
2023-03-11T17:58:18.835Z,33.71
2023-03-11T18:03:24.901Z,18.48
2023-03-11T18:08:30.937Z,16.28
2023-03-11T18:13:36.251Z,21.30
2023-03-11T18:18:40.734Z,19.09
2023-03-11T18:23:44.412Z,17.61
2023-03-11T18:28:53.304Z,17.35
2023-03-11T18:33:58.469Z,16.25
2023-03-11T18:39:02.820Z,18.05
2023-03-11T18:44:12.394Z,21.81
2023-03-11T18:49:15.853Z,35.08
2023-03-11T18:54:19.394Z,15.40
2023-03-11T18:59:24.328Z,15.22
2023-03-11T19:04:28.624Z,15.36
2023-03-11T19:09:32.119Z,16.37
2023-03-11T19:14:36.997Z,17.28
2023-03-11T19:19:40.786Z,20.86
2023-03-11T19:24:44.224Z,24.03
2023-03-11T19:29:51.279Z,34.54
2023-03-11T19:34:54.686Z,21.03
2023-03-11T19:39:58.104Z,19.61
2023-03-11T19:45:06.999Z,32.95
2023-03-11T19:50:11.054Z,32.91
2023-03-11T19:55:17.116Z,19.12
2023-03-11T20:00:24.649Z,23.07
2023-03-11T20:05:28.148Z,27.70
2023-03-11T20:10:31.776Z,17.00
2023-03-11T20:15:36.853Z,16.04
2023-03-11T20:20:44.639Z,17.61
2023-03-11T20:25:48.111Z,20.54
2023-03-11T20:30:53.036Z,23.29
2023-03-11T20:36:04.184Z,15.17
2023-03-11T20:41:09.677Z,19.30
2023-03-11T20:46:14.650Z,21.28
2023-03-11T20:51:24.421Z,18.75
2023-03-11T20:56:30.400Z,19.29
2023-03-11T21:01:36.065Z,20.60
2023-03-11T21:06:41.135Z,16.35
2023-03-11T21:11:45.001Z,16.65
2023-03-11T21:16:52.438Z,17.32
2023-03-11T21:21:55.904Z,17.33
2023-03-11T21:27:01.620Z,18.21
2023-03-11T21:32:06.973Z,18.74
2023-03-11T21:37:12.879Z,17.31
2023-03-11T21:42:18.927Z,23.76
2023-03-11T21:47:26.114Z,21.90
2023-03-11T21:52:29.533Z,19.02
2023-03-11T21:57:32.943Z,28.52
2023-03-11T22:02:40.120Z,15.42
2023-03-11T22:07:43.917Z,15.84
2023-03-11T22:12:47.533Z,19.63
2023-03-11T22:17:54.748Z,19.61
2023-03-11T22:22:58.316Z,17.94
2023-03-11T22:28:04.387Z,17.88
2023-03-11T22:33:11.412Z,15.62
2023-03-11T22:38:15.117Z,17.80
2023-03-11T22:43:20.962Z,17.87
2023-03-11T22:48:25.854Z,17.26
2023-03-11T22:53:29.323Z,17.08
2023-03-11T22:58:35.094Z,17.52
2023-03-11T23:03:43.816Z,17.90
2023-03-11T23:08:47.797Z,17.19
2023-03-11T23:13:51.892Z,17.83
2023-03-11T23:18:56.818Z,17.55
2023-03-11T23:24:06.440Z,17.51
2023-03-11T23:29:09.886Z,25.38
2023-03-11T23:34:16.985Z,14.95
2023-03-11T23:39:20.454Z,17.15
2023-03-11T23:44:23.970Z,16.91
2023-03-11T23:49:28.765Z,18.28
2023-03-11T23:54:34.605Z,17.82
2023-03-11T23:59:38.163Z,17.87
